createdAt,value
2022-10-13T00:01:10.958Z,20.10
2022-10-13T00:03:39.931Z,21.38
2022-10-13T00:06:08.593Z,22.95
2022-10-13T00:08:36.377Z,22.23
2022-10-13T00:11:10.761Z,20.88
2022-10-13T00:13:37.374Z,20.90
2022-10-13T00:16:04.443Z,20.70
2022-10-13T00:18:30.979Z,21.02
2022-10-13T00:20:57.495Z,19.70
2022-10-13T00:23:24.666Z,19.85
2022-10-13T00:25:52.076Z,19.80
2022-10-13T00:28:20.232Z,20.30
2022-10-13T00:30:47.213Z,20.77
2022-10-13T00:33:14.747Z,20.45
2022-10-13T00:35:43.571Z,20.23
2022-10-13T00:38:10.812Z,18.60
2022-10-13T00:40:52.870Z,19.75
2022-10-13T00:43:25.248Z,20.45
2022-10-13T00:45:52.942Z,19.88
2022-10-13T00:48:25.782Z,19.45
2022-10-13T00:50:53.007Z,20.90
2022-10-13T00:53:25.531Z,18.98
2022-10-13T00:55:52.953Z,18.17
2022-10-13T00:58:23.293Z,19.15
2022-10-13T01:00:51.690Z,18.70
2022-10-13T01:03:21.786Z,18.88
2022-10-13T01:05:50.555Z,19.73
2022-10-13T01:08:19.151Z,18.25
2022-10-13T01:10:58.355Z,19.58
2022-10-13T01:13:50.740Z,18.38
2022-10-13T01:16:31.125Z,18.98
2022-10-13T01:19:22.162Z,18.70
2022-10-13T01:22:10.640Z,18.75
2022-10-13T01:24:47.970Z,18.52
2022-10-13T01:27:26.914Z,19.00
2022-10-13T01:30:05.107Z,17.23
2022-10-13T01:32:54.325Z,18.27
2022-10-13T01:35:32.541Z,18.20
2022-10-13T01:38:08.069Z,18.30
2022-10-13T01:40:37.575Z,19.63
2022-10-13T01:43:17.689Z,19.60
2022-10-13T01:45:58.804Z,17.88
2022-10-13T01:48:26.675Z,18.13
2022-10-13T01:50:54.229Z,19.10
2022-10-13T01:53:21.591Z,19.55
2022-10-13T01:55:58.052Z,19.92
2022-10-13T01:58:32.705Z,21.00
2022-10-13T02:01:14.040Z,20.63
2022-10-13T02:04:00.907Z,19.67
2022-10-13T02:06:33.137Z,20.15
2022-10-13T02:09:12.935Z,20.75
2022-10-13T02:11:46.925Z,21.07
2022-10-13T02:14:27.348Z,20.65
2022-10-13T02:16:56.048Z,20.83
2022-10-13T02:19:23.682Z,21.65
2022-10-13T02:21:52.244Z,21.65
2022-10-13T02:24:19.040Z,19.25
2022-10-13T02:26:45.933Z,20.75
2022-10-13T02:29:17.537Z,20.17
2022-10-13T02:31:45.149Z,21.15
2022-10-13T02:34:12.589Z,19.13
2022-10-13T02:36:40.062Z,19.02
2022-10-13T02:39:08.541Z,20.05
2022-10-13T02:41:35.192Z,19.70
2022-10-13T02:44:01.930Z,19.88
2022-10-13T02:46:28.662Z,20.05
2022-10-13T02:48:55.316Z,21.42
2022-10-13T02:51:21.900Z,20.80
2022-10-13T02:53:48.939Z,21.70
2022-10-13T02:56:15.877Z,22.48
2022-10-13T02:58:42.681Z,24.58
2022-10-13T03:01:11.808Z,24.05
2022-10-13T03:03:39.335Z,26.52
2022-10-13T03:06:06.890Z,26.33
2022-10-13T03:08:35.224Z,28.20
2022-10-13T03:11:01.884Z,26.30
2022-10-13T03:13:28.485Z,27.60
2022-10-13T03:15:55.467Z,29.77
2022-10-13T03:18:22.704Z,28.88
2022-10-13T03:20:57.344Z,26.35
2022-10-13T03:23:23.982Z,30.58
2022-10-13T03:25:50.503Z,30.73
2022-10-13T03:28:17.282Z,30.35
2022-10-13T03:30:43.887Z,30.90
2022-10-13T03:33:10.756Z,30.58
2022-10-13T03:35:37.366Z,28.20
2022-10-13T03:38:03.898Z,29.20
2022-10-13T03:40:30.475Z,27.52
2022-10-13T03:42:56.990Z,28.80
2022-10-13T03:45:23.533Z,27.98
2022-10-13T03:47:50.316Z,27.15
2022-10-13T03:50:16.823Z,28.23
2022-10-13T03:52:43.405Z,27.58
2022-10-13T03:55:10.292Z,27.73
2022-10-13T03:57:36.826Z,27.13
2022-10-13T04:00:04.043Z,26.65
2022-10-13T04:02:30.734Z,26.98
2022-10-13T04:04:57.220Z,26.52
2022-10-13T04:07:23.812Z,25.90
2022-10-13T04:09:50.380Z,25.73
2022-10-13T04:12:20.609Z,26.95
2022-10-13T04:14:47.857Z,26.15
2022-10-13T04:17:14.422Z,25.58
2022-10-13T04:19:41.054Z,25.60
2022-10-13T04:22:07.579Z,25.25
2022-10-13T04:24:34.891Z,26.05
2022-10-13T04:27:01.386Z,23.65
2022-10-13T04:29:27.983Z,24.48
2022-10-13T04:31:54.649Z,24.08
2022-10-13T04:34:21.234Z,24.20
2022-10-13T04:36:51.776Z,24.13
2022-10-13T04:39:18.665Z,23.58
2022-10-13T04:41:45.793Z,23.05
2022-10-13T04:44:12.339Z,22.98
2022-10-13T04:46:38.893Z,23.88
2022-10-13T04:49:05.441Z,23.85
2022-10-13T04:51:32.034Z,22.73
2022-10-13T04:54:05.539Z,22.75
2022-10-13T04:56:32.312Z,22.20
2022-10-13T04:58:59.813Z,22.80
2022-10-13T05:01:26.747Z,21.45
2022-10-13T05:03:59.685Z,22.35
2022-10-13T05:06:31.789Z,22.35
2022-10-13T05:08:58.429Z,20.50
2022-10-13T05:11:26.742Z,21.85
2022-10-13T05:13:54.054Z,20.60
2022-10-13T05:16:22.235Z,20.88
2022-10-13T05:18:50.031Z,21.08
2022-10-13T05:21:19.783Z,22.73
2022-10-13T05:23:46.662Z,21.40
2022-10-13T05:26:18.117Z,20.73
2022-10-13T05:28:45.725Z,20.50
2022-10-13T05:31:14.855Z,20.27
2022-10-13T05:33:42.212Z,20.73
2022-10-13T05:36:15.010Z,20.80
2022-10-13T05:38:41.540Z,21.58
2022-10-13T05:41:11.063Z,22.70
2022-10-13T05:43:39.859Z,22.08
2022-10-13T05:46:06.702Z,24.92
2022-10-13T05:48:33.428Z,23.60
2022-10-13T05:51:01.978Z,23.92
2022-10-13T05:53:32.121Z,24.30
2022-10-13T05:56:06.203Z,22.63
2022-10-13T05:58:40.766Z,22.67
2022-10-13T06:01:09.970Z,22.67
2022-10-13T06:03:37.446Z,23.45
2022-10-13T06:06:04.258Z,22.20
2022-10-13T06:08:30.956Z,22.30
2022-10-13T06:10:57.923Z,20.83
2022-10-13T06:13:24.469Z,20.35
2022-10-13T06:15:51.013Z,21.33
2022-10-13T06:18:17.549Z,20.02
2022-10-13T06:20:44.156Z,20.95
2022-10-13T06:23:10.660Z,22.27
2022-10-13T06:25:37.184Z,21.25
2022-10-13T06:28:03.865Z,23.40
2022-10-13T06:30:30.368Z,23.50
2022-10-13T06:32:56.963Z,24.80
2022-10-13T06:35:23.734Z,24.80
2022-10-13T06:37:50.320Z,25.90
2022-10-13T06:40:17.276Z,27.63
2022-10-13T06:42:49.556Z,28.67
2022-10-13T06:45:16.062Z,29.45
2022-10-13T06:47:42.624Z,30.50
2022-10-13T06:50:09.554Z,28.20
2022-10-13T06:52:36.700Z,27.55
2022-10-13T06:55:03.761Z,27.35
2022-10-13T06:57:30.552Z,28.25
2022-10-13T06:59:57.350Z,29.88
2022-10-13T07:02:23.960Z,27.88
2022-10-13T07:04:50.517Z,27.65
2022-10-13T07:07:17.072Z,27.23
2022-10-13T07:09:43.621Z,27.48
2022-10-13T07:12:10.225Z,29.75
2022-10-13T07:14:39.203Z,28.60
2022-10-13T07:17:08.235Z,29.60
2022-10-13T07:19:34.860Z,30.00
2022-10-13T07:22:01.402Z,28.85
2022-10-13T07:24:27.990Z,28.15
2022-10-13T07:26:54.483Z,28.75
2022-10-13T07:29:21.064Z,26.77
2022-10-13T07:31:47.710Z,26.55
2022-10-13T07:34:16.092Z,25.55
2022-10-13T07:36:42.737Z,25.08
2022-10-13T07:39:10.027Z,26.08
2022-10-13T07:41:37.442Z,27.50
2022-10-13T07:44:03.996Z,24.67
2022-10-13T07:46:30.599Z,24.77
2022-10-13T07:48:57.083Z,24.95
2022-10-13T07:51:23.848Z,25.25
2022-10-13T07:53:50.555Z,25.48
2022-10-13T07:56:17.295Z,24.50
2022-10-13T07:58:46.790Z,24.08
2022-10-13T08:01:14.289Z,26.73
2022-10-13T08:03:44.187Z,26.00
2022-10-13T08:06:14.435Z,25.65
2022-10-13T08:08:41.198Z,26.40
2022-10-13T08:11:13.468Z,27.95
2022-10-13T08:13:42.916Z,27.52
2022-10-13T08:16:10.166Z,27.08
2022-10-13T08:18:36.954Z,27.17
2022-10-13T08:21:33.120Z,25.70
2022-10-13T08:23:51.171Z,25.38
2022-10-13T08:26:22.105Z,26.25
2022-10-13T08:29:09.530Z,25.23
2022-10-13T08:31:35.961Z,25.13
2022-10-13T08:34:02.722Z,24.30
2022-10-13T08:36:29.293Z,25.67
2022-10-13T08:38:58.511Z,25.90
2022-10-13T08:41:30.397Z,24.50
2022-10-13T08:44:59.260Z,23.73
2022-10-13T08:47:13.117Z,25.05
2022-10-13T08:49:41.588Z,22.77
2022-10-13T08:52:23.025Z,24.15
2022-10-13T08:54:51.143Z,25.65
2022-10-13T08:57:18.691Z,25.38
2022-10-13T08:59:46.210Z,26.60
2022-10-13T09:02:31.818Z,26.90
2022-10-13T09:05:03.354Z,27.70
2022-10-13T09:07:35.246Z,28.92
2022-10-13T09:10:01.863Z,28.27
2022-10-13T09:12:28.433Z,29.50
2022-10-13T09:15:03.352Z,28.73
2022-10-13T09:17:30.373Z,27.98
2022-10-13T09:20:07.438Z,28.17
2022-10-13T09:22:40.578Z,28.73
2022-10-13T09:25:07.080Z,29.05
2022-10-13T09:27:43.733Z,28.08
2022-10-13T09:30:32.143Z,29.60
2022-10-13T09:33:04.642Z,28.60
2022-10-13T09:35:34.384Z,30.75
2022-10-13T09:38:05.623Z,29.10
2022-10-13T09:40:32.834Z,29.17
2022-10-13T09:43:02.471Z,29.60
2022-10-13T09:45:31.401Z,29.10
2022-10-13T09:48:03.413Z,28.33
2022-10-13T09:50:32.021Z,27.80
2022-10-13T09:53:29.210Z,29.15
2022-10-13T09:56:08.705Z,29.25
2022-10-13T09:58:40.025Z,31.20
2022-10-13T10:01:09.950Z,30.52
2022-10-13T10:03:38.759Z,32.42
2022-10-13T10:06:14.799Z,32.50
2022-10-13T10:09:04.943Z,32.25
2022-10-13T10:11:41.438Z,31.27
2022-10-13T10:14:22.950Z,31.27
2022-10-13T10:17:04.381Z,29.50
2022-10-13T10:19:46.906Z,29.75
2022-10-13T10:22:20.385Z,28.15
2022-10-13T10:24:55.399Z,27.45
2022-10-13T10:27:29.953Z,29.30
2022-10-13T10:30:03.709Z,29.90
2022-10-13T10:32:54.793Z,28.45
2022-10-13T10:35:52.422Z,26.42
2022-10-13T10:38:29.929Z,28.05
2022-10-13T10:41:26.484Z,27.38
2022-10-13T10:44:10.905Z,27.02
2022-10-13T10:46:45.535Z,27.35
2022-10-13T10:49:18.636Z,28.80
2022-10-13T10:51:46.077Z,28.45
2022-10-13T10:54:31.473Z,27.58
2022-10-13T10:57:09.671Z,29.10
2022-10-13T10:59:53.551Z,27.73
2022-10-13T11:02:41.324Z,28.73
2022-10-13T11:05:07.903Z,26.42
2022-10-13T11:07:34.496Z,26.58
2022-10-13T11:10:18.469Z,27.92
2022-10-13T11:13:06.274Z,25.67
2022-10-13T11:15:45.428Z,26.98
2022-10-13T11:18:49.346Z,26.85
2022-10-13T11:21:15.972Z,26.17
2022-10-13T11:23:48.787Z,24.52
2022-10-13T11:26:43.341Z,24.38
2022-10-13T11:29:19.102Z,24.65
2022-10-13T11:31:54.879Z,24.95
2022-10-13T11:34:30.083Z,24.50
2022-10-13T11:36:59.782Z,25.08
2022-10-13T11:42:19.857Z,24.75
2022-10-13T11:45:23.429Z,23.52
2022-10-13T11:50:50.328Z,24.60
2022-10-13T11:53:26.350Z,23.55
2022-10-13T11:56:03.246Z,26.05
2022-10-13T11:58:32.202Z,24.85
2022-10-13T12:01:06.529Z,23.58
2022-10-13T12:03:36.072Z,23.10
2022-10-13T12:06:07.809Z,23.27
2022-10-13T12:08:36.528Z,24.92
2022-10-13T12:11:07.588Z,24.30
2022-10-13T12:13:36.136Z,24.67
2022-10-13T12:16:06.682Z,22.80
2022-10-13T12:21:12.593Z,23.15
2022-10-13T12:23:39.749Z,21.08
2022-10-13T12:26:06.499Z,21.25
2022-10-13T12:28:57.580Z,19.58
2022-10-13T12:31:30.667Z,19.13
2022-10-13T12:34:01.901Z,21.90
2022-10-13T12:36:34.338Z,24.08
2022-10-13T12:39:15.281Z,24.45
2022-10-13T12:41:45.126Z,22.55
2022-10-13T12:44:32.358Z,22.48
2022-10-13T12:47:03.917Z,23.77
2022-10-13T12:49:34.086Z,22.45
2022-10-13T12:52:09.753Z,21.15
2022-10-13T12:54:47.373Z,20.67
2022-10-13T12:57:20.521Z,19.67
2022-10-13T12:59:47.659Z,19.42
2022-10-13T13:02:32.779Z,20.88
2022-10-13T13:04:59.504Z,21.02
2022-10-13T13:07:37.480Z,20.88
2022-10-13T13:10:18.435Z,21.30
2022-10-13T13:12:46.479Z,22.88
2022-10-13T13:15:21.458Z,22.52
2022-10-13T13:18:04.306Z,21.75
2022-10-13T13:20:33.830Z,21.73
2022-10-13T13:23:01.016Z,22.10
2022-10-13T13:25:27.996Z,21.67
2022-10-13T13:27:54.816Z,21.67
2022-10-13T13:30:22.920Z,22.55
2022-10-13T13:32:49.718Z,21.95
2022-10-13T13:35:17.379Z,21.90
2022-10-13T13:37:51.620Z,21.15
2022-10-13T13:40:23.481Z,20.23
2022-10-13T13:42:50.079Z,21.40
2022-10-13T13:45:19.288Z,21.13
2022-10-13T13:47:46.291Z,21.17
2022-10-13T13:50:34.368Z,20.45
2022-10-13T13:53:01.355Z,20.17
2022-10-13T13:55:29.680Z,18.85
2022-10-13T13:57:57.329Z,20.58
2022-10-13T14:00:24.169Z,20.25
2022-10-13T14:02:50.767Z,20.60
2022-10-13T14:05:17.399Z,21.15
2022-10-13T14:07:44.930Z,19.17
2022-10-13T14:10:11.971Z,19.20
2022-10-13T14:12:39.141Z,19.90
2022-10-13T14:15:06.443Z,18.25
2022-10-13T14:17:33.762Z,19.95
2022-10-13T14:20:00.910Z,18.85
2022-10-13T14:22:27.737Z,19.40
2022-10-13T14:24:54.284Z,18.60
2022-10-13T14:27:21.200Z,19.52
2022-10-13T14:29:47.783Z,20.38
2022-10-13T14:32:14.399Z,21.02
2022-10-13T14:34:40.976Z,21.65
2022-10-13T14:37:07.546Z,20.50
2022-10-13T14:39:34.204Z,20.88
2022-10-13T14:42:00.725Z,20.17
2022-10-13T14:44:27.415Z,18.63
2022-10-13T14:46:53.968Z,17.60
2022-10-13T14:49:20.539Z,18.27
2022-10-13T14:51:47.050Z,16.58
2022-10-13T14:54:18.771Z,17.30
2022-10-13T14:56:45.688Z,17.60
2022-10-13T14:59:13.657Z,18.08
2022-10-13T15:01:41.752Z,17.05
2022-10-13T15:04:10.955Z,17.20
2022-10-13T15:06:39.307Z,18.05
2022-10-13T15:11:39.022Z,17.00
2022-10-13T15:14:05.860Z,16.17
2022-10-13T15:16:38.070Z,16.67
2022-10-13T15:19:05.370Z,14.77
2022-10-13T15:21:32.007Z,14.75
2022-10-13T15:23:59.300Z,16.02
2022-10-13T15:26:25.935Z,17.00
2022-10-13T15:28:53.834Z,16.83
2022-10-13T15:31:22.815Z,18.52
2022-10-13T15:33:51.976Z,17.77
2022-10-13T15:36:19.731Z,17.65
2022-10-13T15:38:46.877Z,16.92
2022-10-13T15:41:13.851Z,15.93
2022-10-13T15:43:40.621Z,17.05
2022-10-13T15:46:10.493Z,17.77
2022-10-13T15:48:37.539Z,16.73
2022-10-13T15:51:13.662Z,18.42
2022-10-13T15:53:40.206Z,18.02
2022-10-13T15:56:07.781Z,17.48
2022-10-13T15:58:37.703Z,17.98
2022-10-13T16:01:12.247Z,17.70
2022-10-13T16:03:39.089Z,19.80
2022-10-13T16:06:08.524Z,18.55
2022-10-13T16:08:41.049Z,18.20
2022-10-13T16:11:09.705Z,18.67
2022-10-13T16:13:36.401Z,19.70
2022-10-13T16:16:03.853Z,18.77
2022-10-13T16:18:36.392Z,18.55
2022-10-13T16:21:18.291Z,18.63
2022-10-13T16:23:46.260Z,21.05
2022-10-13T16:26:12.878Z,20.20
2022-10-13T16:28:39.467Z,20.15
2022-10-13T16:31:08.604Z,20.25
2022-10-13T16:33:35.962Z,19.63
2022-10-13T16:36:05.921Z,20.90
2022-10-13T16:38:32.790Z,24.83
2022-10-13T16:41:03.798Z,27.27
2022-10-13T16:43:30.890Z,25.38
2022-10-13T16:46:00.552Z,24.77
2022-10-13T16:48:27.830Z,26.85
2022-10-13T16:50:54.345Z,28.15
2022-10-13T16:53:21.331Z,26.70
2022-10-13T16:55:48.295Z,28.17
2022-10-13T16:58:14.935Z,25.70
2022-10-13T17:00:41.697Z,23.83
2022-10-13T17:03:10.265Z,31.38
2022-10-13T17:05:36.998Z,30.98
2022-10-13T17:08:04.765Z,32.95
2022-10-13T17:10:31.426Z,33.38
2022-10-13T17:12:57.967Z,29.63
2022-10-13T17:15:24.674Z,33.53
2022-10-13T17:17:51.317Z,34.63
2022-10-13T17:20:18.061Z,30.83
2022-10-13T17:22:44.631Z,35.72
2022-10-13T17:25:11.154Z,32.83
2022-10-13T17:27:37.926Z,37.45
2022-10-13T17:30:05.466Z,35.15
2022-10-13T17:32:32.028Z,33.28
2022-10-13T17:34:59.403Z,33.47
2022-10-13T17:37:26.477Z,36.30
2022-10-13T17:39:53.408Z,34.42
2022-10-13T17:42:19.943Z,41.05
2022-10-13T17:44:51.019Z,39.15
2022-10-13T17:47:17.828Z,37.60
2022-10-13T17:49:44.553Z,35.63
2022-10-13T17:52:11.062Z,37.80
2022-10-13T17:54:37.976Z,32.50
2022-10-13T17:57:04.459Z,33.55
2022-10-13T17:59:31.101Z,33.88
2022-10-13T18:01:57.910Z,39.00
2022-10-13T18:04:24.480Z,38.67
2022-10-13T18:06:51.015Z,35.50
2022-10-13T18:09:20.828Z,38.13
2022-10-13T18:11:50.733Z,33.92
2022-10-13T18:16:52.671Z,34.85
2022-10-13T18:19:19.780Z,34.92
2022-10-13T18:21:46.312Z,34.17
2022-10-13T18:24:13.053Z,34.33
2022-10-13T18:26:40.536Z,37.90
2022-10-13T18:29:09.410Z,36.38
2022-10-13T18:31:38.248Z,38.30
2022-10-13T18:34:07.592Z,37.90
2022-10-13T18:36:36.468Z,38.83
2022-10-13T18:39:07.533Z,34.67
2022-10-13T18:41:36.047Z,36.30
2022-10-13T18:44:06.345Z,37.83
2022-10-13T18:46:33.785Z,37.33
2022-10-13T18:49:00.330Z,37.40
2022-10-13T18:51:29.123Z,34.20
2022-10-13T18:53:58.682Z,38.03
2022-10-13T18:56:28.600Z,37.17
2022-10-13T18:58:59.467Z,39.85
2022-10-13T19:01:28.458Z,40.15
2022-10-13T19:03:55.737Z,40.47
2022-10-13T19:06:27.282Z,42.83
2022-10-13T19:09:00.790Z,37.10
2022-10-13T19:11:28.882Z,42.72
2022-10-13T19:13:55.893Z,40.70
2022-10-13T19:16:27.282Z,42.22
2022-10-13T19:18:53.932Z,39.38
2022-10-13T19:21:22.495Z,41.13
2022-10-13T19:23:50.131Z,41.47
2022-10-13T19:26:26.707Z,41.78
2022-10-13T19:28:55.950Z,42.03
2022-10-13T19:31:25.052Z,42.47
2022-10-13T19:33:52.640Z,42.40
2022-10-13T19:36:42.335Z,41.63
2022-10-13T19:39:19.584Z,39.03
2022-10-13T19:41:49.559Z,42.33
2022-10-13T19:44:18.136Z,39.13
2022-10-13T19:46:46.419Z,39.60
2022-10-13T19:49:15.515Z,40.53
2022-10-13T19:51:42.341Z,40.85
2022-10-13T19:54:09.633Z,37.15
2022-10-13T19:56:36.404Z,37.15
2022-10-13T19:59:06.812Z,35.38
2022-10-13T20:01:40.103Z,31.80
2022-10-13T20:04:10.394Z,32.40
2022-10-13T20:06:37.393Z,29.10
2022-10-13T20:09:04.874Z,28.73
2022-10-13T20:11:31.764Z,27.70
2022-10-13T20:13:58.305Z,27.10
2022-10-13T20:16:25.725Z,23.23
2022-10-13T20:18:57.003Z,22.13
2022-10-13T20:21:24.796Z,22.42
2022-10-13T20:23:51.802Z,23.35
2022-10-13T20:26:19.293Z,20.60
2022-10-13T20:28:47.212Z,23.02
2022-10-13T20:31:15.307Z,22.60
2022-10-13T20:33:42.654Z,21.83
2022-10-13T20:36:14.543Z,23.48
2022-10-13T20:38:41.838Z,26.13
2022-10-13T20:41:08.351Z,25.50
2022-10-13T20:43:35.649Z,25.25
2022-10-13T20:46:05.307Z,26.95
2022-10-13T20:48:57.817Z,25.70
2022-10-13T20:51:25.713Z,26.75
2022-10-13T20:53:52.301Z,26.05
2022-10-13T20:56:22.016Z,25.65
2022-10-13T20:58:49.813Z,26.93
2022-10-13T21:01:17.703Z,26.13
2022-10-13T21:03:44.386Z,26.52
2022-10-13T21:06:13.690Z,25.08
2022-10-13T21:08:40.990Z,26.17
2022-10-13T21:11:10.893Z,26.30
2022-10-13T21:13:39.558Z,23.65
2022-10-13T21:16:12.178Z,22.33
2022-10-13T21:18:39.038Z,23.63
2022-10-13T21:21:07.999Z,23.55
2022-10-13T21:23:36.079Z,22.10
2022-10-13T21:26:07.316Z,23.38
2022-10-13T21:28:36.477Z,24.30
2022-10-13T21:31:11.660Z,24.65
2022-10-13T21:33:40.100Z,23.60
2022-10-13T21:36:09.860Z,25.02
2022-10-13T21:38:36.504Z,23.20
2022-10-13T21:41:10.072Z,21.00
2022-10-13T21:43:36.809Z,23.55
2022-10-13T21:46:33.669Z,24.13
2022-10-13T21:49:02.715Z,23.15
2022-10-13T21:51:32.629Z,22.08
2022-10-13T21:54:05.140Z,21.33
2022-10-13T21:56:32.716Z,21.48
2022-10-13T21:58:59.439Z,22.30
2022-10-13T22:01:26.139Z,23.08
2022-10-13T22:03:55.092Z,22.85
2022-10-13T22:06:21.939Z,20.90
2022-10-13T22:08:53.954Z,21.30
2022-10-13T22:11:21.606Z,22.60
2022-10-13T22:13:48.213Z,21.88
2022-10-13T22:16:18.615Z,22.35
2022-10-13T22:18:45.771Z,23.27
2022-10-13T22:21:15.788Z,23.10
2022-10-13T22:23:43.456Z,23.90
2022-10-13T22:26:10.727Z,23.75
2022-10-13T22:28:37.959Z,23.05
2022-10-13T22:31:09.486Z,24.33
2022-10-13T22:33:37.292Z,24.38
2022-10-13T22:36:08.987Z,23.10
2022-10-13T22:38:35.997Z,25.17
2022-10-13T22:41:04.112Z,24.13
2022-10-13T22:43:30.739Z,24.65
2022-10-13T22:45:57.531Z,23.35
2022-10-13T22:48:25.286Z,25.80
2022-10-13T22:50:52.241Z,26.30
2022-10-13T22:53:18.747Z,24.13
2022-10-13T22:55:45.508Z,25.23
2022-10-13T22:58:12.374Z,26.15
2022-10-13T23:00:39.453Z,27.58
2022-10-13T23:03:06.247Z,27.38
2022-10-13T23:05:32.901Z,26.77
2022-10-13T23:07:59.498Z,26.98
2022-10-13T23:10:26.015Z,29.23
2022-10-13T23:12:52.519Z,29.25
2022-10-13T23:15:19.076Z,29.90
2022-10-13T23:17:45.566Z,31.02
2022-10-13T23:20:12.339Z,30.42
2022-10-13T23:22:38.872Z,30.05
2022-10-13T23:25:05.722Z,31.98
2022-10-13T23:27:32.268Z,30.23
2022-10-13T23:29:58.785Z,30.10
2022-10-13T23:32:25.418Z,29.90
2022-10-13T23:34:51.946Z,30.58
2022-10-13T23:37:18.735Z,28.70
2022-10-13T23:39:45.631Z,29.80
2022-10-13T23:42:12.123Z,28.85
2022-10-13T23:44:38.644Z,28.08
2022-10-13T23:47:05.282Z,28.65
2022-10-13T23:49:31.817Z,28.13
2022-10-13T23:51:58.299Z,28.15
2022-10-13T23:54:24.813Z,27.90
2022-10-13T23:56:51.324Z,25.35
2022-10-13T23:59:17.843Z,27.17
